createdAt,value
2022-11-26T00:00:25.744Z,81.45
2022-11-26T00:02:53.767Z,81.09
2022-11-26T00:05:22.406Z,80.92
2022-11-26T00:07:50.147Z,81.32
2022-11-26T00:10:19.688Z,81.57
2022-11-26T00:12:47.398Z,81.28
2022-11-26T00:15:14.977Z,81.66
2022-11-26T00:17:42.953Z,81.07
2022-11-26T00:20:10.647Z,81.53
2022-11-26T00:22:38.336Z,82.06
2022-11-26T00:25:05.918Z,81.58
2022-11-26T00:27:33.552Z,82.26
2022-11-26T00:30:01.569Z,81.77
2022-11-26T00:32:29.212Z,81.97
2022-11-26T00:34:57.627Z,81.81
2022-11-26T00:37:25.240Z,81.92
2022-11-26T00:39:52.980Z,81.70
2022-11-26T00:42:21.057Z,81.73
2022-11-26T00:44:49.109Z,81.85
2022-11-26T00:47:19.682Z,82.25
2022-11-26T00:49:47.408Z,82.02
2022-11-26T00:52:15.029Z,82.19
2022-11-26T00:54:42.966Z,82.11
2022-11-26T00:57:10.635Z,82.41
2022-11-26T00:59:38.281Z,82.37
2022-11-26T01:02:05.922Z,82.02
2022-11-26T01:04:33.614Z,82.05
2022-11-26T01:07:01.892Z,82.04
2022-11-26T01:09:29.540Z,81.72
2022-11-26T01:11:57.207Z,82.26
2022-11-26T01:14:24.786Z,81.91
2022-11-26T01:16:52.377Z,82.10
2022-11-26T01:19:20.417Z,82.33
2022-11-26T01:21:48.556Z,82.41
2022-11-26T01:24:16.175Z,82.54
2022-11-26T01:26:43.817Z,82.27
2022-11-26T01:29:11.804Z,82.42
2022-11-26T01:31:39.688Z,82.54
2022-11-26T01:34:07.513Z,82.15
2022-11-26T01:36:37.260Z,82.23
2022-11-26T01:39:04.864Z,82.34
2022-11-26T01:41:32.505Z,81.90
2022-11-26T01:44:00.302Z,82.63
2022-11-26T01:46:27.884Z,82.43
2022-11-26T01:48:56.966Z,82.41
2022-11-26T01:51:24.588Z,82.50
2022-11-26T01:53:52.911Z,82.68
2022-11-26T01:56:20.948Z,82.08
2022-11-26T01:58:48.613Z,82.24
2022-11-26T02:01:16.979Z,82.64
2022-11-26T02:03:44.632Z,82.62
2022-11-26T02:06:12.197Z,82.05
2022-11-26T02:08:40.144Z,81.94
2022-11-26T02:11:08.261Z,82.08
2022-11-26T02:13:35.827Z,81.94
2022-11-26T02:16:03.441Z,82.07
2022-11-26T02:18:31.031Z,82.47
2022-11-26T02:20:58.610Z,82.14
2022-11-26T02:23:26.177Z,82.48
2022-11-26T02:25:53.807Z,82.36
2022-11-26T02:28:21.503Z,82.05
2022-11-26T02:30:49.089Z,82.29
2022-11-26T02:33:17.399Z,81.81
2022-11-26T02:35:44.994Z,82.38
2022-11-26T02:38:14.178Z,82.42
2022-11-26T02:40:41.797Z,82.19
2022-11-26T02:43:09.355Z,82.39
2022-11-26T02:45:37.354Z,82.05
2022-11-26T02:48:04.991Z,82.26
2022-11-26T02:50:32.668Z,82.58
2022-11-26T02:53:00.199Z,82.54
2022-11-26T02:55:28.113Z,82.87
2022-11-26T02:57:56.051Z,83.13
2022-11-26T03:00:23.659Z,82.70
2022-11-26T03:02:51.313Z,83.09
2022-11-26T03:05:19.027Z,83.00
2022-11-26T03:07:46.829Z,82.69
2022-11-26T03:10:15.245Z,83.20
2022-11-26T03:12:42.856Z,82.71
2022-11-26T03:15:11.264Z,83.21
2022-11-26T03:17:39.195Z,83.00
2022-11-26T03:20:06.777Z,83.22
2022-11-26T03:22:34.762Z,83.53
2022-11-26T03:25:02.395Z,84.04
2022-11-26T03:27:29.969Z,83.50
2022-11-26T03:29:57.666Z,83.91
2022-11-26T03:32:25.283Z,83.86
2022-11-26T03:34:53.234Z,84.00
2022-11-26T03:37:20.790Z,84.00
2022-11-26T03:39:48.706Z,84.01
2022-11-26T03:42:16.305Z,83.92
2022-11-26T03:44:43.917Z,84.37
2022-11-26T03:47:11.917Z,83.82
2022-11-26T03:49:39.465Z,84.01
2022-11-26T03:52:08.170Z,83.88
2022-11-26T03:54:35.931Z,84.15
2022-11-26T03:57:03.727Z,84.14
2022-11-26T03:59:31.327Z,84.29
2022-11-26T04:01:59.271Z,83.89
2022-11-26T04:04:26.885Z,84.37
2022-11-26T04:06:54.452Z,84.48
2022-11-26T04:09:22.055Z,84.57
2022-11-26T04:11:49.998Z,85.05
2022-11-26T04:14:17.613Z,84.70
2022-11-26T04:16:45.257Z,84.70
2022-11-26T04:19:12.839Z,84.42
2022-11-26T04:21:40.410Z,84.97
2022-11-26T04:24:08.395Z,84.93
2022-11-26T04:26:35.971Z,84.88
2022-11-26T04:29:03.575Z,84.92
2022-11-26T04:31:31.229Z,84.72
2022-11-26T04:33:58.828Z,84.73
2022-11-26T04:36:26.500Z,85.03
2022-11-26T04:38:54.133Z,84.85
2022-11-26T04:41:22.218Z,84.54
2022-11-26T04:43:49.807Z,84.22
2022-11-26T04:46:17.834Z,84.13
2022-11-26T04:48:45.863Z,84.14
2022-11-26T04:51:13.469Z,83.80
2022-11-26T04:53:42.582Z,83.28
2022-11-26T04:56:10.182Z,83.21
2022-11-26T04:58:37.774Z,82.83
2022-11-26T05:01:05.771Z,83.30
2022-11-26T05:03:33.465Z,82.69
2022-11-26T05:06:01.567Z,83.48
2022-11-26T05:08:29.507Z,83.24
2022-11-26T05:10:58.484Z,83.46
2022-11-26T05:13:26.517Z,83.36
2022-11-26T05:15:54.127Z,83.07
2022-11-26T05:18:21.742Z,83.52
2022-11-26T05:20:49.339Z,83.49
2022-11-26T05:23:16.975Z,83.73
2022-11-26T05:25:44.764Z,83.62
2022-11-26T05:28:12.378Z,83.66
2022-11-26T05:30:40.341Z,83.62
2022-11-26T05:33:07.936Z,83.88
2022-11-26T05:35:35.516Z,83.56
2022-11-26T05:38:03.476Z,83.66
2022-11-26T05:40:31.087Z,83.64
2022-11-26T05:42:59.927Z,83.56
2022-11-26T05:45:27.660Z,83.91
2022-11-26T05:47:55.298Z,83.74
2022-11-26T05:50:23.262Z,83.57
2022-11-26T05:52:50.911Z,83.96
2022-11-26T05:55:19.280Z,83.74
2022-11-26T05:57:46.902Z,84.10
2022-11-26T06:00:14.624Z,83.84
2022-11-26T06:02:42.346Z,83.89
2022-11-26T06:05:10.091Z,83.95
2022-11-26T06:07:43.298Z,83.84
2022-11-26T06:10:12.396Z,84.17
2022-11-26T06:12:40.021Z,84.07
2022-11-26T06:15:08.265Z,84.14
2022-11-26T06:17:35.842Z,83.56
2022-11-26T06:20:05.073Z,83.97
2022-11-26T06:22:32.656Z,83.83
2022-11-26T06:25:00.310Z,84.10
2022-11-26T06:27:28.299Z,84.14
2022-11-26T06:29:55.872Z,83.72
2022-11-26T06:32:24.398Z,84.22
2022-11-26T06:34:54.119Z,83.70
2022-11-26T06:37:22.314Z,83.96
2022-11-26T06:39:50.288Z,83.82
2022-11-26T06:42:17.928Z,83.88
2022-11-26T06:44:46.523Z,83.74
2022-11-26T06:47:14.169Z,83.99
2022-11-26T06:49:41.839Z,84.23
2022-11-26T06:52:09.838Z,83.34
2022-11-26T06:54:37.621Z,84.12
2022-11-26T06:57:06.394Z,83.50
2022-11-26T06:59:34.328Z,84.01
2022-11-26T07:02:03.447Z,84.09
2022-11-26T07:04:31.539Z,84.51
2022-11-26T07:06:59.172Z,83.99
2022-11-26T07:09:26.774Z,84.15
2022-11-26T07:11:54.421Z,84.29
2022-11-26T07:14:22.783Z,84.40
2022-11-26T07:16:50.399Z,84.33
2022-11-26T07:19:18.040Z,83.93
2022-11-26T07:21:46.584Z,84.53
2022-11-26T07:24:14.201Z,84.31
2022-11-26T07:26:41.861Z,84.05
2022-11-26T07:29:09.862Z,84.43
2022-11-26T07:31:37.582Z,84.32
2022-11-26T07:34:05.851Z,84.02
2022-11-26T07:36:33.462Z,84.48
2022-11-26T07:39:01.070Z,84.28
2022-11-26T07:41:29.433Z,84.00
2022-11-26T07:43:57.070Z,84.02
2022-11-26T07:46:24.729Z,83.65
2022-11-26T07:48:52.647Z,83.76
2022-11-26T07:51:20.239Z,83.86
2022-11-26T07:53:48.329Z,83.85
2022-11-26T07:56:16.011Z,83.60
2022-11-26T07:58:43.640Z,83.36
2022-11-26T08:01:11.315Z,83.38
2022-11-26T08:03:40.117Z,83.28
2022-11-26T08:06:08.157Z,83.26
2022-11-26T08:08:36.177Z,83.19
2022-11-26T08:11:04.059Z,83.20
2022-11-26T08:13:31.776Z,83.38
2022-11-26T08:15:59.422Z,83.00
2022-11-26T08:18:27.468Z,83.08
2022-11-26T08:20:55.212Z,82.33
2022-11-26T08:23:23.697Z,81.88
2022-11-26T08:26:20.397Z,81.50
2022-11-26T08:28:39.383Z,81.36
2022-11-26T08:31:07.190Z,81.51
2022-11-26T08:33:36.346Z,81.69
2022-11-26T08:36:08.396Z,81.33
2022-11-26T08:38:36.563Z,81.82
2022-11-26T08:41:04.581Z,81.80
2022-11-26T08:43:58.668Z,81.54
2022-11-26T08:46:22.071Z,81.47
2022-11-26T08:48:49.795Z,80.98
2022-11-26T08:51:18.201Z,81.71
2022-11-26T08:53:46.308Z,81.04
2022-11-26T08:56:13.962Z,81.06
2022-11-26T08:58:41.682Z,81.29
2022-11-26T09:01:09.833Z,80.84
2022-11-26T09:03:37.633Z,81.34
2022-11-26T09:06:05.332Z,81.11
2022-11-26T09:08:44.954Z,80.73
2022-11-26T09:11:14.552Z,80.98
2022-11-26T09:13:42.588Z,81.19
2022-11-26T09:16:10.383Z,81.24
2022-11-26T09:18:38.209Z,80.68
2022-11-26T09:21:05.893Z,81.03
2022-11-26T09:23:33.604Z,81.00
2022-11-26T09:26:01.731Z,80.87
2022-11-26T09:28:29.394Z,80.77
2022-11-26T09:30:57.238Z,80.48
2022-11-26T09:33:25.023Z,80.17
2022-11-26T09:35:53.566Z,80.13
2022-11-26T09:38:21.834Z,80.15
2022-11-26T09:40:49.631Z,80.05
2022-11-26T09:43:17.373Z,79.52
2022-11-26T09:45:45.308Z,79.29
2022-11-26T09:48:13.130Z,79.50
2022-11-26T09:50:41.532Z,79.17
2022-11-26T09:53:09.602Z,79.21
2022-11-26T09:55:39.035Z,79.73
2022-11-26T09:58:06.796Z,79.12
2022-11-26T10:00:35.268Z,78.66
2022-11-26T10:03:03.354Z,77.79
2022-11-26T10:05:31.285Z,77.52
2022-11-26T10:07:59.270Z,77.13
2022-11-26T10:10:27.376Z,76.98
2022-11-26T10:13:17.326Z,76.80
2022-11-26T10:15:43.769Z,76.41
2022-11-26T10:18:11.664Z,76.79
2022-11-26T10:20:39.564Z,76.25
2022-11-26T10:23:07.565Z,76.26
2022-11-26T10:25:35.324Z,76.22
2022-11-26T10:28:03.550Z,76.42
2022-11-26T10:30:33.108Z,76.54
2022-11-26T10:33:01.018Z,76.78
2022-11-26T10:35:30.735Z,76.39
2022-11-26T10:37:58.696Z,76.04
2022-11-26T10:40:26.873Z,75.83
2022-11-26T10:42:54.742Z,75.85
2022-11-26T10:45:22.795Z,76.03
2022-11-26T10:47:51.749Z,76.10
2022-11-26T10:50:45.921Z,75.71
2022-11-26T10:53:08.239Z,75.92
2022-11-26T10:55:35.951Z,75.83
2022-11-26T10:58:06.079Z,76.03
2022-11-26T11:00:34.130Z,76.24
2022-11-26T11:03:02.070Z,75.69
2022-11-26T11:05:30.633Z,75.69
2022-11-26T11:07:58.714Z,75.65
2022-11-26T11:10:27.210Z,75.71
2022-11-26T11:12:55.253Z,75.74
2022-11-26T11:15:23.161Z,75.87
2022-11-26T11:17:51.357Z,75.60
2022-11-26T11:20:19.170Z,75.38
2022-11-26T11:22:47.227Z,75.31
2022-11-26T11:25:15.074Z,75.51
2022-11-26T11:27:44.125Z,75.77
2022-11-26T11:30:12.573Z,75.07
2022-11-26T11:32:40.444Z,75.12
2022-11-26T11:35:08.594Z,75.14
2022-11-26T11:37:36.648Z,74.34
2022-11-26T11:40:04.545Z,75.14
2022-11-26T11:42:33.234Z,74.73
2022-11-26T11:45:01.274Z,74.12
2022-11-26T11:47:29.949Z,73.71
2022-11-26T11:49:57.861Z,73.89
2022-11-26T11:52:25.896Z,73.81
2022-11-26T11:54:56.775Z,73.62
2022-11-26T11:57:24.895Z,73.01
2022-11-26T12:00:11.130Z,72.76
2022-11-26T12:02:39.435Z,72.53
2022-11-26T12:05:07.341Z,72.08
2022-11-26T12:07:35.346Z,72.14
2022-11-26T12:10:04.610Z,71.90
2022-11-26T12:12:32.516Z,71.37
2022-11-26T12:15:00.642Z,71.37
2022-11-26T12:17:33.088Z,71.74
2022-11-26T12:20:01.374Z,71.41
2022-11-26T12:22:31.241Z,72.16
2022-11-26T12:24:59.113Z,72.45
2022-11-26T12:27:27.093Z,72.29
2022-11-26T12:29:55.309Z,72.91
2022-11-26T12:32:23.280Z,73.38
2022-11-26T12:34:53.108Z,73.39
2022-11-26T12:37:21.045Z,73.53
2022-11-26T12:39:53.689Z,73.68
2022-11-26T12:42:22.633Z,73.92
2022-11-26T12:44:50.436Z,73.89
2022-11-26T12:47:19.100Z,74.06
2022-11-26T12:49:47.109Z,73.75
2022-11-26T12:52:14.904Z,73.53
2022-11-26T12:54:43.099Z,73.59
2022-11-26T12:57:11.209Z,73.37
2022-11-26T12:59:42.385Z,73.42
2022-11-26T13:02:10.465Z,73.74
2022-11-26T13:04:38.559Z,73.91
2022-11-26T13:07:06.855Z,74.15
2022-11-26T13:09:34.748Z,74.29
2022-11-26T13:12:06.556Z,74.04
2022-11-26T13:14:35.406Z,74.37
2022-11-26T13:17:03.327Z,74.43
2022-11-26T13:19:31.465Z,74.58
2022-11-26T13:21:59.402Z,74.88
2022-11-26T13:24:27.358Z,74.59
2022-11-26T13:26:55.225Z,74.40
2022-11-26T13:29:23.178Z,75.16
2022-11-26T13:31:51.663Z,74.93
2022-11-26T13:34:19.563Z,74.68
2022-11-26T13:36:48.218Z,75.07
2022-11-26T13:39:16.081Z,74.79
2022-11-26T13:41:44.274Z,75.25
2022-11-26T13:44:12.877Z,75.53
2022-11-26T13:46:40.822Z,75.28
2022-11-26T13:49:10.333Z,75.28
2022-11-26T13:51:38.464Z,74.77
2022-11-26T13:54:06.301Z,74.90
2022-11-26T13:56:34.497Z,75.09
2022-11-26T13:59:02.401Z,74.86
2022-11-26T14:01:31.567Z,75.39
2022-11-26T14:03:59.826Z,75.01
2022-11-26T14:06:29.169Z,75.44
2022-11-26T14:08:56.969Z,75.10
2022-11-26T14:11:24.902Z,75.10
2022-11-26T14:13:54.526Z,75.02
2022-11-26T14:16:22.465Z,75.33
2022-11-26T14:18:50.724Z,75.36
2022-11-26T14:21:19.101Z,75.45
2022-11-26T14:23:47.694Z,75.50
2022-11-26T14:26:18.835Z,75.69
2022-11-26T14:28:46.817Z,75.65
2022-11-26T14:31:14.751Z,75.66
2022-11-26T14:33:45.637Z,75.98
2022-11-26T14:36:13.745Z,75.73
2022-11-26T14:38:43.152Z,75.93
2022-11-26T14:41:11.164Z,76.13
2022-11-26T14:43:39.203Z,76.26
2022-11-26T14:46:07.732Z,76.14
2022-11-26T14:48:35.926Z,75.97
2022-11-26T14:51:06.063Z,76.34
2022-11-26T14:53:34.045Z,76.50
2022-11-26T14:56:02.115Z,76.30
2022-11-26T14:58:30.081Z,76.91
2022-11-26T15:00:57.939Z,76.82
2022-11-26T15:03:27.163Z,76.80
2022-11-26T15:05:55.179Z,76.52
2022-11-26T15:08:22.982Z,76.70
2022-11-26T15:10:51.123Z,76.52
2022-11-26T15:13:19.187Z,76.55
2022-11-26T15:15:47.178Z,77.13
2022-11-26T15:18:15.132Z,76.95
2022-11-26T15:20:43.129Z,77.13
2022-11-26T15:23:15.534Z,77.21
2022-11-26T15:25:46.111Z,77.10
2022-11-26T15:28:14.037Z,77.10
2022-11-26T15:30:42.065Z,77.27
2022-11-26T15:33:11.269Z,77.75
2022-11-26T15:35:40.495Z,77.38
2022-11-26T15:38:08.314Z,77.39
2022-11-26T15:40:37.838Z,77.49
2022-11-26T15:43:05.675Z,77.49
2022-11-26T15:45:33.700Z,77.76
2022-11-26T15:48:02.080Z,77.75
2022-11-26T15:50:32.125Z,77.98
2022-11-26T15:53:01.006Z,78.01
2022-11-26T15:55:29.303Z,78.54
2022-11-26T15:57:57.445Z,78.56
2022-11-26T16:00:26.131Z,78.22
2022-11-26T16:02:54.338Z,78.24
2022-11-26T16:05:22.210Z,78.52
2022-11-26T16:07:50.159Z,78.50
2022-11-26T16:10:19.613Z,78.49
2022-11-26T16:12:52.575Z,78.54
2022-11-26T16:15:21.192Z,78.89
2022-11-26T16:17:52.403Z,78.47
2022-11-26T16:20:20.369Z,78.38
2022-11-26T16:22:48.137Z,78.76
2022-11-26T16:25:16.674Z,78.76
2022-11-26T16:27:49.224Z,78.53
2022-11-26T16:30:20.030Z,78.77
2022-11-26T16:32:48.011Z,79.10
2022-11-26T16:35:43.502Z,78.93
2022-11-26T16:38:04.340Z,78.91
2022-11-26T16:40:34.436Z,78.79
2022-11-26T16:43:02.325Z,78.78
2022-11-26T16:45:30.235Z,79.20
2022-11-26T16:47:58.117Z,78.59
2022-11-26T16:50:26.313Z,78.65
2022-11-26T16:52:55.568Z,79.05
2022-11-26T16:55:23.397Z,78.95
2022-11-26T16:57:51.332Z,78.47
2022-11-26T17:00:19.717Z,78.93
2022-11-26T17:02:48.034Z,78.86
2022-11-26T17:05:18.332Z,78.98
2022-11-26T17:07:47.122Z,78.86
2022-11-26T17:10:15.070Z,78.57
2022-11-26T17:12:42.899Z,79.15
2022-11-26T17:15:11.036Z,78.53
2022-11-26T17:17:38.897Z,78.42
2022-11-26T17:20:06.876Z,79.00
2022-11-26T17:22:34.947Z,78.96
2022-11-26T17:25:02.846Z,79.06
2022-11-26T17:27:31.048Z,78.90
2022-11-26T17:30:00.144Z,78.83
2022-11-26T17:32:28.054Z,79.29
2022-11-26T17:34:56.230Z,78.83
2022-11-26T17:37:24.299Z,79.00
2022-11-26T17:39:52.503Z,79.13
2022-11-26T17:42:20.784Z,79.29
2022-11-26T17:44:48.999Z,79.07
2022-11-26T17:47:17.916Z,79.12
2022-11-26T17:49:46.616Z,79.21
2022-11-26T17:52:15.074Z,79.24
2022-11-26T17:54:44.445Z,78.83
2022-11-26T17:57:12.300Z,78.99
2022-11-26T17:59:40.566Z,79.38
2022-11-26T18:02:08.970Z,79.26
2022-11-26T18:04:37.142Z,79.33
2022-11-26T18:07:08.879Z,79.21
2022-11-26T18:09:37.330Z,79.09
2022-11-26T18:12:05.484Z,79.24
2022-11-26T18:14:35.895Z,79.39
2022-11-26T18:17:04.579Z,79.26
2022-11-26T18:19:34.137Z,79.59
2022-11-26T18:22:02.088Z,79.69
2022-11-26T18:24:30.010Z,79.73
2022-11-26T18:26:58.049Z,79.55
2022-11-26T18:29:26.310Z,79.48
2022-11-26T18:31:54.205Z,79.63
2022-11-26T18:34:21.953Z,79.71
2022-11-26T18:36:53.698Z,79.66
2022-11-26T18:39:21.882Z,79.76
2022-11-26T18:41:50.105Z,80.35
2022-11-26T18:44:18.786Z,79.63
2022-11-26T18:46:46.654Z,80.09
2022-11-26T18:49:15.454Z,80.20
2022-11-26T18:51:43.673Z,79.97
2022-11-26T18:54:11.537Z,79.83
2022-11-26T18:56:40.973Z,79.51
2022-11-26T18:59:08.947Z,79.90
2022-11-26T19:01:36.987Z,79.89
2022-11-26T19:04:04.889Z,80.11
2022-11-26T19:06:33.236Z,79.76
2022-11-26T19:09:02.160Z,80.14
2022-11-26T19:11:30.267Z,80.01
2022-11-26T19:13:58.290Z,80.42
2022-11-26T19:16:26.282Z,80.23
2022-11-26T19:18:54.716Z,80.48
2022-11-26T19:21:22.644Z,80.32
2022-11-26T19:23:50.415Z,80.54
2022-11-26T19:26:18.278Z,80.83
2022-11-26T19:28:46.337Z,80.17
2022-11-26T19:31:14.774Z,81.08
2022-11-26T19:33:43.187Z,80.48
2022-11-26T19:36:11.111Z,80.54
2022-11-26T19:38:38.980Z,80.69
2022-11-26T19:41:06.841Z,80.83
2022-11-26T19:43:34.903Z,80.64
2022-11-26T19:46:04.985Z,80.82
2022-11-26T19:48:32.926Z,80.87
2022-11-26T19:51:01.004Z,80.67
2022-11-26T19:53:28.931Z,80.47
2022-11-26T19:55:57.722Z,81.16
2022-11-26T19:58:25.640Z,81.24
2022-11-26T20:00:53.502Z,80.68
2022-11-26T20:03:21.345Z,81.43
2022-11-26T20:05:49.325Z,80.86
2022-11-26T20:08:17.803Z,81.00
2022-11-26T20:10:49.699Z,80.89
2022-11-26T20:13:17.974Z,81.10
2022-11-26T20:15:49.067Z,81.46
2022-11-26T20:18:17.158Z,81.34
2022-11-26T20:20:45.620Z,81.05
2022-11-26T20:23:13.615Z,81.26
2022-11-26T20:25:41.381Z,80.96
2022-11-26T20:28:09.453Z,80.88
2022-11-26T20:30:37.349Z,81.55
2022-11-26T20:33:05.777Z,81.30
2022-11-26T20:35:35.225Z,81.02
2022-11-26T20:38:03.055Z,81.15
2022-11-26T20:40:31.134Z,81.25
2022-11-26T20:42:59.111Z,81.37
2022-11-26T20:45:27.273Z,81.31
2022-11-26T20:47:55.038Z,80.89
2022-11-26T20:50:22.971Z,81.30
2022-11-26T20:52:50.783Z,81.33
2022-11-26T20:55:22.221Z,80.78
2022-11-26T20:57:50.576Z,80.32
2022-11-26T21:00:23.545Z,80.71
2022-11-26T21:02:54.087Z,80.32
2022-11-26T21:05:23.394Z,80.51
2022-11-26T21:07:52.654Z,80.54
2022-11-26T21:10:25.419Z,80.43
2022-11-26T21:12:53.323Z,80.21
2022-11-26T21:15:21.195Z,80.52
2022-11-26T21:17:49.469Z,80.25
2022-11-26T21:20:18.018Z,80.38
2022-11-26T21:22:46.493Z,80.30
2022-11-26T21:25:14.619Z,79.71
2022-11-26T21:27:42.392Z,80.21
2022-11-26T21:30:10.194Z,79.90
2022-11-26T21:32:38.505Z,79.82
2022-11-26T21:35:07.536Z,79.69
2022-11-26T21:37:35.370Z,79.80
2022-11-26T21:40:03.348Z,79.90
2022-11-26T21:42:31.174Z,79.53
2022-11-26T21:44:59.763Z,79.37
2022-11-26T21:47:29.558Z,79.60
2022-11-26T21:49:57.552Z,79.66
2022-11-26T21:52:25.442Z,79.41
2022-11-26T21:54:53.342Z,79.67
2022-11-26T21:57:21.177Z,79.72
2022-11-26T21:59:50.224Z,79.73
2022-11-26T22:02:18.273Z,79.39
2022-11-26T22:04:46.192Z,79.53
2022-11-26T22:07:14.753Z,79.33
2022-11-26T22:09:43.182Z,79.30
2022-11-26T22:12:12.854Z,79.02
2022-11-26T22:14:40.782Z,79.48
2022-11-26T22:17:08.716Z,79.42
2022-11-26T22:19:36.693Z,79.15
2022-11-26T22:22:05.076Z,79.58
2022-11-26T22:24:33.081Z,79.30
2022-11-26T22:27:00.833Z,79.46
2022-11-26T22:29:29.121Z,79.32
2022-11-26T22:31:57.054Z,79.72
2022-11-26T22:34:27.152Z,79.07
2022-11-26T22:36:57.058Z,79.20
2022-11-26T22:39:25.053Z,79.26
2022-11-26T22:41:52.832Z,79.25
2022-11-26T22:44:20.662Z,79.61
2022-11-26T22:46:49.401Z,79.31
2022-11-26T22:49:18.040Z,79.41
2022-11-26T22:51:47.637Z,79.10
2022-11-26T22:54:15.609Z,78.90
2022-11-26T22:56:43.446Z,79.42
2022-11-26T22:59:11.553Z,79.25
2022-11-26T23:01:40.298Z,79.01
2022-11-26T23:04:08.259Z,79.97
2022-11-26T23:06:36.318Z,79.51
2022-11-26T23:09:04.907Z,79.67
2022-11-26T23:11:33.551Z,79.26
2022-11-26T23:14:02.284Z,79.53
2022-11-26T23:16:30.204Z,79.43
2022-11-26T23:18:58.059Z,79.34
2022-11-26T23:21:25.851Z,79.48
2022-11-26T23:23:54.046Z,79.49
2022-11-26T23:26:26.822Z,79.53
2022-11-26T23:28:55.465Z,79.76
2022-11-26T23:31:23.299Z,79.34
2022-11-26T23:33:51.462Z,79.60
2022-11-26T23:36:20.199Z,79.86
2022-11-26T23:38:48.127Z,80.13
2022-11-26T23:41:15.954Z,79.57
2022-11-26T23:43:43.657Z,80.13
2022-11-26T23:46:11.424Z,80.18
2022-11-26T23:48:39.427Z,80.11
2022-11-26T23:51:07.911Z,80.10
2022-11-26T23:53:35.640Z,79.87
2022-11-26T23:56:03.922Z,80.36
2022-11-26T23:58:32.014Z,79.84
